createdAt,value
2019-01-06T15:38:24.822Z,77.00
2019-01-06T15:41:31.017Z,77.00
2019-01-06T15:44:28.218Z,76.70
2019-01-06T15:47:34.567Z,76.70
2019-01-06T15:50:37.801Z,76.50
2019-01-06T15:53:29.435Z,76.50
2019-01-06T15:56:23.510Z,76.50
2019-01-06T15:59:20.403Z,76.30
2019-01-06T16:02:08.470Z,76.20
2019-01-06T16:05:01.469Z,76.10
2019-01-06T16:08:10.997Z,76.10
2019-01-06T16:11:17.291Z,76.20
2019-01-06T16:14:08.229Z,76.10
2019-01-06T16:17:01.532Z,76.00
2019-01-06T16:19:52.563Z,75.80
2019-01-06T16:22:44.476Z,75.60
2019-01-06T16:25:57.433Z,75.40
2019-01-06T16:28:38.479Z,75.40
2019-01-06T16:31:25.398Z,75.20
2019-01-06T16:34:16.391Z,75.10
2019-01-06T16:37:16.305Z,75.20
2019-01-06T16:40:19.481Z,75.00
2019-01-06T16:43:10.944Z,75.10
2019-01-06T16:45:57.654Z,75.10
2019-01-06T16:48:57.770Z,75.10
2019-01-06T16:51:47.842Z,75.10
2019-01-06T16:54:48.017Z,75.20
2019-01-06T16:57:48.132Z,74.90
2019-01-06T17:00:35.230Z,74.80
2019-01-06T17:03:21.846Z,74.60
2019-01-06T17:06:14.158Z,74.60
2019-01-06T17:09:07.839Z,74.50
2019-01-06T17:11:54.442Z,74.50
2019-01-06T17:14:41.238Z,74.40
2019-01-06T17:17:41.406Z,74.40
2019-01-06T17:20:32.082Z,74.30
2019-01-06T17:23:23.442Z,74.20
2019-01-06T17:26:11.507Z,74.20
2019-01-06T17:28:57.862Z,74.40
2019-01-06T17:31:42.020Z,74.40
2019-01-06T17:34:39.078Z,74.40
2019-01-06T17:37:38.780Z,74.60
2019-01-06T17:40:26.871Z,74.50
2019-01-06T17:43:16.259Z,74.60
2019-01-06T17:46:07.098Z,74.70
2019-01-06T17:49:00.734Z,74.70
2019-01-06T17:52:06.773Z,74.70
2019-01-06T17:54:54.830Z,74.90
2019-01-06T17:57:44.490Z,74.90
2019-01-06T18:00:31.302Z,74.90
2019-01-06T18:03:27.766Z,74.90
2019-01-06T18:06:14.798Z,74.90
2019-01-06T18:09:15.411Z,74.90
2019-01-06T18:11:59.456Z,75.00
2019-01-06T18:14:53.533Z,75.10
2019-01-06T18:17:39.954Z,75.00
2019-01-06T18:20:26.381Z,74.90
2019-01-06T18:23:20.745Z,75.00
2019-01-06T18:26:11.453Z,75.10
2019-01-06T18:28:58.113Z,75.10
2019-01-06T18:31:44.861Z,75.40
2019-01-06T18:34:34.214Z,76.20
2019-01-06T18:37:22.522Z,77.00
2019-01-06T18:40:25.585Z,77.30
